Time;durP1;ratioP1;P1;durP2;ratioP2;P2;SDS_P1;SDS_P2;PMS_P1;PMS_P2;Temp;Humidity;BMP_temperature;BMP_pressure;BME280_temperature;BME280_humidity;BME280_pressure;Samples;Min_cycle;Max_cycle;Signal;HPM_P1;HPM_P2
2021/01/21 00:02:07;;;;;;;1.25;0.77;;;10.30;80.30;;;;;;5095567;28;20035;-75
2021/01/21 00:04:32;;;;;;;0.82;0.43;;;10.30;80.10;;;;;;5115058;28;20043;-75
2021/01/21 00:06:58;;;;;;;1.65;0.50;;;10.40;80.20;;;;;;5096983;28;20048;-75
2021/01/21 00:09:24;;;;;;;0.63;0.52;;;10.30;80.00;;;;;;5116867;28;20035;-75
2021/01/21 00:11:49;;;;;;;1.38;0.55;;;10.40;80.00;;;;;;5116203;28;20372;-75
2021/01/21 00:14:15;;;;;;;0.47;0.38;;;10.40;79.80;;;;;;5116274;28;20032;-75
2021/01/21 00:16:41;;;;;;;0.88;0.50;;;10.40;79.90;;;;;;5115714;28;20495;-75
2021/01/21 00:19:07;;;;;;;0.57;0.50;;;10.30;79.90;;;;;;5116693;28;20074;-74
2021/01/21 00:21:32;;;;;;;2.15;0.63;;;10.40;80.00;;;;;;5097497;28;20040;-76
2021/01/21 00:23:58;;;;;;;1.35;0.70;;;10.30;80.00;;;;;;5097519;28;20092;-76
2021/01/21 00:26:25;;;;;;;1.17;0.70;;;10.40;79.90;;;;;;5116550;28;20126;-75
2021/01/21 00:28:51;;;;;;;0.88;0.60;;;10.40;79.80;;;;;;5115581;28;20047;-76
2021/01/21 00:31:17;;;;;;;0.80;0.60;;;10.40;79.60;;;;;;5110849;28;20073;-75
2021/01/21 00:33:42;;;;;;;1.33;0.68;;;10.40;79.70;;;;;;5121411;28;20040;-75
2021/01/21 00:36:08;;;;;;;2.42;0.77;;;10.40;79.80;;;;;;5117092;28;20059;-75
2021/01/21 00:38:34;;;;;;;0.63;0.45;;;10.30;79.70;;;;;;5099456;28;20040;-75
2021/01/21 00:41:00;;;;;;;0.68;0.40;;;10.40;79.70;;;;;;5098458;28;20173;-74
2021/01/21 00:43:25;;;;;;;0.90;0.57;;;10.30;79.60;;;;;;5115899;28;20043;-74
2021/01/21 00:45:51;;;;;;;0.63;0.50;;;10.40;79.60;;;;;;5114693;28;20051;-74
2021/01/21 00:48:19;;;;;;;0.77;0.50;;;10.40;79.60;;;;;;5115638;28;20478;-75
2021/01/21 00:50:44;;;;;;;0.40;0.40;;;10.30;79.80;;;;;;5117712;28;20108;-76
2021/01/21 00:53:10;;;;;;;0.70;0.43;;;10.30;79.90;;;;;;5098453;28;20040;-76
2021/01/21 00:55:36;;;;;;;1.52;0.60;;;10.30;79.90;;;;;;5118484;28;20035;-76
2021/01/21 00:58:02;;;;;;;0.50;0.40;;;10.40;80.00;;;;;;5096648;28;20055;-75
2021/01/21 01:00:27;;;;;;;1.33;0.55;;;10.40;79.90;;;;;;5117225;28;20081;-76
2021/01/21 01:02:53;;;;;;;2.67;0.50;;;10.40;79.80;;;;;;5094454;28;20410;-76
2021/01/21 01:05:19;;;;;;;0.47;0.30;;;10.40;79.50;;;;;;5096958;28;20127;-75
2021/01/21 01:07:45;;;;;;;1.02;0.60;;;10.40;79.50;;;;;;5116370;28;20031;-76
2021/01/21 01:10:11;;;;;;;1.90;0.70;;;10.40;79.60;;;;;;5097419;28;20051;-74
2021/01/21 01:12:37;;;;;;;1.02;0.50;;;10.50;79.40;;;;;;5114731;28;20118;-75
2021/01/21 01:15:06;;;;;;;1.13;0.60;;;10.50;79.40;;;;;;5096986;28;20067;-75
2021/01/21 01:17:31;;;;;;;0.65;0.55;;;10.50;79.20;;;;;;5113405;28;20399;-75
2021/01/21 01:19:57;;;;;;;0.57;0.52;;;10.50;79.20;;;;;;5097100;28;20038;-76
2021/01/21 01:22:23;;;;;;;1.05;0.55;;;10.50;79.30;;;;;;5115307;28;20043;-75
2021/01/21 01:24:48;;;;;;;2.05;0.60;;;10.50;79.20;;;;;;5114421;28;20047;-74
2021/01/21 01:27:14;;;;;;;0.50;0.40;;;10.50;79.30;;;;;;5115943;28;20036;-75
2021/01/21 01:29:40;;;;;;;1.13;0.60;;;10.50;79.10;;;;;;5095905;28;20154;-75
2021/01/21 01:32:06;;;;;;;1.67;0.60;;;10.50;79.10;;;;;;5116038;28;20137;-75
2021/01/21 01:34:31;;;;;;;0.57;0.47;;;10.50;79.20;;;;;;5115825;28;20028;-75
2021/01/21 01:36:57;;;;;;;0.80;0.50;;;10.50;79.10;;;;;;5115333;28;20445;-75
2021/01/21 01:39:23;;;;;;;0.63;0.50;;;10.60;79.00;;;;;;5115028;28;20071;-75
2021/01/21 01:41:48;;;;;;;0.50;0.47;;;10.60;79.50;;;;;;5114423;28;20054;-75
2021/01/21 01:44:14;;;;;;;2.08;0.50;;;10.60;78.80;;;;;;5097605;28;20040;-75
2021/01/21 01:46:40;;;;;;;0.30;0.30;;;10.50;78.90;;;;;;5097054;28;20092;-75
2021/01/21 01:49:06;;;;;;;0.95;0.40;;;10.60;79.00;;;;;;5114765;28;20497;-75
2021/01/21 01:51:31;;;;;;;0.90;0.55;;;10.60;79.00;;;;;;5094826;28;20047;-75
2021/01/21 01:53:59;;;;;;;1.45;0.60;;;10.60;78.90;;;;;;5095502;28;20044;-75
2021/01/21 01:56:26;;;;;;;0.73;0.45;;;10.60;78.90;;;;;;5114476;28;20126;-75
2021/01/21 01:58:53;;;;;;;0.75;0.40;;;10.60;78.80;;;;;;5115466;28;20505;-75
2021/01/21 02:01:19;;;;;;;1.77;0.70;;;10.70;78.70;;;;;;5116462;28;20035;-75
2021/01/21 02:03:48;;;;;;;2.50;0.60;;;10.70;78.60;;;;;;5116906;28;20483;-75
2021/01/21 02:06:14;;;;;;;0.30;0.28;;;10.80;78.40;;;;;;5116583;28;20441;-75
2021/01/21 02:08:40;;;;;;;1.23;0.63;;;10.80;78.30;;;;;;5115962;28;20035;-75
2021/01/21 02:11:19;;;;;;;1.23;0.50;;;10.90;78.20;;;;;;5115362;28;20036;-75
2021/01/21 02:13:54;;;;;;;0.40;0.40;;;10.90;78.10;;;;;;5114509;28;20067;-75
2021/01/21 02:16:30;;;;;;;0.73;0.45;;;10.90;77.90;;;;;;5114430;28;20031;-75
2021/01/21 02:19:26;;;;;;;1.95;0.60;;;10.90;77.90;;;;;;5114388;28;20043;-74
2021/01/21 02:22:16;;;;;;;1.50;0.70;;;10.90;77.80;;;;;;5098629;28;20608;-75
2021/01/21 02:25:16;;;;;;;1.45;0.60;;;10.90;77.60;;;;;;5113409;28;20040;-75
2021/01/21 02:28:01;;;;;;;1.92;0.60;;;10.90;77.80;;;;;;5099995;28;20123;-73
2021/01/21 02:30:50;;;;;;;0.65;0.50;;;10.80;78.20;;;;;;5113600;28;20085;-75
2021/01/21 02:33:43;;;;;;;0.65;0.47;;;10.80;78.40;;;;;;5114629;28;20031;-76
2021/01/21 02:36:15;;;;;;;2.33;0.68;;;10.70;78.60;;;;;;5084906;28;20492;-75
2021/01/21 02:38:44;;;;;;;1.23;0.75;;;10.70;78.60;;;;;;5096582;28;20190;-75
2021/01/21 02:41:10;;;;;;;0.70;0.52;;;10.80;78.60;;;;;;5112931;28;20066;-75
2021/01/21 02:43:35;;;;;;;1.20;0.60;;;10.70;78.50;;;;;;5114041;28;20482;-75
2021/01/21 02:46:01;;;;;;;0.40;0.40;;;10.70;78.50;;;;;;5094793;28;20044;-75
2021/01/21 02:48:27;;;;;;;1.38;0.60;;;10.70;78.60;;;;;;5114686;28;20506;-75
2021/01/21 02:51:01;;;;;;;1.10;0.65;;;10.80;78.60;;;;;;5113475;28;20043;-75
2021/01/21 02:53:28;;;;;;;1.73;0.90;;;10.80;78.50;;;;;;5112708;28;20460;-75
2021/01/21 02:56:00;;;;;;;0.85;0.47;;;10.80;78.50;;;;;;5095788;28;20134;-75
2021/01/21 02:58:35;;;;;;;1.15;0.60;;;10.80;78.40;;;;;;5113602;28;20056;-75
2021/01/21 03:01:02;;;;;;;1.15;0.60;;;10.70;78.50;;;;;;5113404;28;20043;-75
2021/01/21 03:03:31;;;;;;;1.13;0.70;;;10.80;78.60;;;;;;5114458;28;20062;-75
2021/01/21 03:05:59;;;;;;;0.73;0.60;;;10.70;78.60;;;;;;5114138;28;20066;-76
2021/01/21 03:08:27;;;;;;;0.60;0.57;;;10.80;78.60;;;;;;5116170;28;20032;-75
2021/01/21 03:11:09;;;;;;;1.95;0.90;;;10.90;78.50;;;;;;5115157;28;20040;-76
2021/01/21 03:13:36;;;;;;;0.82;0.60;;;11.10;78.20;;;;;;5115769;28;20039;-75
2021/01/21 03:16:02;;;;;;;0.98;0.60;;;11.00;77.90;;;;;;5114428;28;20483;-75
2021/01/21 03:18:28;;;;;;;0.98;0.70;;;11.00;77.80;;;;;;5113397;28;20042;-75
2021/01/21 03:20:54;;;;;;;2.25;0.70;;;11.10;77.90;;;;;;5114467;28;20085;-75
2021/01/21 03:23:19;;;;;;;0.85;0.65;;;11.10;78.10;;;;;;5095611;28;20479;-76
2021/01/21 03:25:45;;;;;;;1.63;0.60;;;11.20;78.00;;;;;;5112752;28;20142;-75
2021/01/21 03:28:11;;;;;;;1.77;0.85;;;11.20;77.80;;;;;;5112890;28;20035;-74
2021/01/21 03:30:36;;;;;;;1.83;0.70;;;11.20;77.90;;;;;;5114650;28;20220;-76
2021/01/21 03:33:02;;;;;;;0.98;0.70;;;11.30;77.70;;;;;;5113279;28;20044;-75
2021/01/21 03:35:28;;;;;;;1.98;0.88;;;11.40;77.60;;;;;;5113258;28;20040;-75
2021/01/21 03:37:54;;;;;;;0.68;0.65;;;11.40;77.50;;;;;;5113028;28;20050;-75
2021/01/21 03:40:19;;;;;;;1.92;0.80;;;11.50;77.40;;;;;;5116241;28;20036;-75
2021/01/21 03:42:45;;;;;;;2.17;0.60;;;11.50;77.20;;;;;;5098751;28;20032;-75
2021/01/21 03:45:12;;;;;;;0.50;0.50;;;11.50;77.30;;;;;;5116547;28;20039;-75
2021/01/21 03:47:38;;;;;;;1.20;0.70;;;11.60;77.30;;;;;;5116377;28;20110;-76
2021/01/21 03:50:04;;;;;;;1.40;0.73;;;11.60;77.10;;;;;;5130013;28;20042;-73
2021/01/21 03:52:30;;;;;;;1.10;0.70;;;11.70;76.80;;;;;;5104334;28;20465;-76
2021/01/21 03:54:55;;;;;;;1.05;0.70;;;11.70;76.60;;;;;;5117704;28;20035;-75
2021/01/21 03:57:21;;;;;;;2.47;0.90;;;11.80;76.60;;;;;;5098295;28;20084;-75
2021/01/21 03:59:47;;;;;;;1.30;0.68;;;11.90;76.50;;;;;;5117396;28;20032;-74
2021/01/21 04:02:12;;;;;;;1.95;0.63;;;11.90;76.30;;;;;;5098775;28;20498;-75
2021/01/21 04:04:38;;;;;;;1.30;0.60;;;11.90;76.10;;;;;;5118829;28;20040;-74
2021/01/21 04:07:03;;;;;;;2.70;0.70;;;11.90;76.10;;;;;;5098700;28;20128;-74
2021/01/21 04:09:29;;;;;;;1.27;0.90;;;11.90;76.10;;;;;;5100502;28;20043;-76
2021/01/21 04:11:55;;;;;;;0.90;0.65;;;11.80;76.20;;;;;;5118451;28;20036;-74
2021/01/21 04:14:20;;;;;;;0.93;0.50;;;11.80;76.60;;;;;;5066215;28;20051;-74
2021/01/21 04:16:46;;;;;;;0.73;0.60;;;11.60;77.10;;;;;;5118417;28;20039;-74
2021/01/21 04:19:12;;;;;;;1.48;0.80;;;11.50;77.50;;;;;;5100174;28;20477;-74
2021/01/21 04:21:38;;;;;;;1.27;0.82;;;11.40;77.90;;;;;;5118055;28;20035;-74
2021/01/21 04:24:04;;;;;;;1.17;0.73;;;11.30;78.40;;;;;;5120064;28;20056;-74
2021/01/21 04:26:29;;;;;;;2.67;0.93;;;11.30;78.70;;;;;;5116412;28;20130;-75
2021/01/21 04:28:55;;;;;;;2.92;0.75;;;11.20;79.10;;;;;;5115513;28;20523;-74
2021/01/21 04:31:23;;;;;;;3.80;0.60;;;10.30;79.40;;;;;;5097374;28;20036;-74
2021/01/21 04:33:48;;;;;;;2.22;0.40;;;9.40;81.30;;;;;;5117886;28;20043;-74
2021/01/21 04:36:14;;;;;;;1.65;0.50;;;8.70;83.00;;;;;;5099929;28;20102;-74
2021/01/21 04:38:41;;;;;;;0.80;0.40;;;8.30;84.90;;;;;;5118922;28;20043;-74
2021/01/21 04:41:07;;;;;;;1.75;0.63;;;8.10;85.00;;;;;;5118801;28;20034;-74
2021/01/21 04:43:33;;;;;;;1.95;0.47;;;7.80;85.30;;;;;;5117965;28;20044;-74
2021/01/21 04:45:59;;;;;;;0.93;0.40;;;7.70;85.40;;;;;;5117975;28;20035;-74
2021/01/21 04:48:25;;;;;;;1.65;0.57;;;7.60;85.20;;;;;;5100410;28;20499;-75
2021/01/21 04:50:53;;;;;;;0.52;0.30;;;7.60;85.00;;;;;;5118080;28;20043;-74
2021/01/21 04:53:24;;;;;;;1.55;0.60;;;7.70;84.70;;;;;;5117821;28;20032;-75
2021/01/21 04:55:56;;;;;;;3.03;0.60;;;7.70;84.40;;;;;;5118495;28;20406;-74
2021/01/21 04:58:30;;;;;;;1.33;0.47;;;7.60;84.10;;;;;;5118492;28;20036;-74
2021/01/21 05:00:57;;;;;;;1.65;0.60;;;7.60;83.90;;;;;;5118101;28;20080;-74
2021/01/21 05:03:23;;;;;;;2.25;0.52;;;7.50;83.80;;;;;;5117616;28;20051;-74
2021/01/21 05:05:49;;;;;;;1.55;0.43;;;7.50;83.80;;;;;;5119041;28;20048;-75
2021/01/21 05:08:16;;;;;;;1.75;0.40;;;7.40;83.90;;;;;;5119919;28;20136;-75
2021/01/21 05:10:43;;;;;;;1.23;0.52;;;7.30;84.00;;;;;;5119590;28;20040;-75
2021/01/21 05:13:08;;;;;;;0.45;0.20;;;7.30;84.10;;;;;;5118865;28;20046;-73
2021/01/21 05:15:34;;;;;;;2.25;0.50;;;7.30;84.20;;;;;;5118598;28;20476;-74
2021/01/21 05:18:00;;;;;;;1.77;0.60;;;7.20;84.70;;;;;;5102427;28;20047;-73
2021/01/21 05:20:26;;;;;;;0.38;0.22;;;7.30;84.00;;;;;;5118766;28;20040;-75
2021/01/21 05:23:00;;;;;;;0.98;0.40;;;7.30;83.90;;;;;;5117669;28;20089;-74
2021/01/21 05:25:26;;;;;;;2.83;0.50;;;7.20;83.90;;;;;;5082378;28;20047;-74
2021/01/21 05:27:55;;;;;;;2.25;0.82;;;7.20;83.80;;;;;;5116064;28;20449;-74
2021/01/21 05:30:27;;;;;;;1.10;0.40;;;7.20;83.80;;;;;;5116699;28;20039;-75
2021/01/21 05:32:54;;;;;;;0.47;0.30;;;7.20;83.80;;;;;;5117680;28;20040;-74
2021/01/21 05:35:20;;;;;;;1.23;0.40;;;7.20;83.70;;;;;;5116038;28;20055;-75
2021/01/21 05:37:54;;;;;;;1.90;0.40;;;7.20;83.60;;;;;;5115870;28;20379;-73
2021/01/21 05:40:24;;;;;;;2.17;0.43;;;7.30;83.50;;;;;;5116465;28;20039;-74
2021/01/21 05:42:52;;;;;;;1.88;0.45;;;7.30;83.40;;;;;;5116107;28;20038;-74
2021/01/21 05:45:19;;;;;;;0.60;0.38;;;7.30;83.20;;;;;;5118008;28;20047;-74
2021/01/21 05:47:57;;;;;;;0.90;0.40;;;7.30;83.20;;;;;;5117191;28;20063;-74
2021/01/21 05:50:23;;;;;;;1.92;0.40;;;7.30;83.20;;;;;;5116824;28;20040;-74
2021/01/21 05:52:50;;;;;;;1.67;0.43;;;7.30;83.10;;;;;;5100017;28;20101;-74
2021/01/21 05:55:17;;;;;;;1.00;0.40;;;7.30;83.10;;;;;;5116070;28;20039;-74
2021/01/21 05:57:43;;;;;;;0.40;0.20;;;7.30;83.00;;;;;;5115074;28;20046;-74
2021/01/21 06:00:10;;;;;;;1.58;0.55;;;7.30;82.90;;;;;;5096549;28;20043;-74
2021/01/21 06:02:37;;;;;;;0.73;0.50;;;7.30;82.90;;;;;;5095478;28;20483;-75
2021/01/21 06:05:04;;;;;;;1.88;0.45;;;7.30;82.90;;;;;;5115263;28;20078;-74
2021/01/21 06:07:31;;;;;;;2.35;0.70;;;7.30;82.80;;;;;;5113537;28;20039;-74
2021/01/21 06:09:58;;;;;;;2.00;0.77;;;7.40;82.70;;;;;;5125195;28;20039;-74
2021/01/21 06:12:27;;;;;;;1.77;0.68;;;7.30;82.60;;;;;;5121423;28;20039;-73
2021/01/21 06:15:02;;;;;;;1.25;0.52;;;7.30;82.50;;;;;;5118129;28;20410;-75
2021/01/21 06:17:28;;;;;;;3.92;0.60;;;7.30;82.50;;;;;;5099815;28;20039;-74
2021/01/21 06:19:54;;;;;;;2.25;0.60;;;7.30;82.60;;;;;;5114867;28;20059;-73
2021/01/21 06:22:27;;;;;;;2.67;0.50;;;7.30;82.60;;;;;;5115409;28;20035;-74
2021/01/21 06:24:58;;;;;;;2.22;0.50;;;7.30;82.40;;;;;;5115557;28;20487;-74
2021/01/21 06:27:26;;;;;;;2.10;0.68;;;7.30;82.30;;;;;;5115572;28;20100;-74
2021/01/21 06:29:55;;;;;;;4.25;0.80;;;7.20;82.10;;;;;;5097322;28;20040;-74
2021/01/21 06:32:28;;;;;;;2.55;0.50;;;7.20;82.00;;;;;;5115636;28;20100;-74
2021/01/21 06:34:58;;;;;;;3.08;0.65;;;7.20;81.90;;;;;;5096479;28;20069;-74
2021/01/21 06:37:26;;;;;;;1.50;0.52;;;7.20;81.90;;;;;;5114841;28;20036;-75
2021/01/21 06:40:04;;;;;;;3.25;0.55;;;7.10;81.90;;;;;;5116609;28;20168;-74
2021/01/21 06:42:33;;;;;;;0.88;0.50;;;7.10;82.00;;;;;;5116338;28;20118;-74
2021/01/21 06:44:59;;;;;;;5.28;1.00;;;7.10;81.90;;;;;;5116023;28;20035;-74
2021/01/21 06:47:27;;;;;;;2.92;0.70;;;7.10;81.90;;;;;;5115551;28;20501;-74
2021/01/21 06:49:55;;;;;;;1.50;0.68;;;7.00;81.70;;;;;;5114878;28;20058;-75
2021/01/21 06:52:25;;;;;;;5.28;0.60;;;7.10;81.70;;;;;;5115208;28;20126;-74
2021/01/21 06:54:51;;;;;;;3.28;0.75;;;7.00;81.60;;;;;;5115781;28;20126;-74
2021/01/21 06:57:43;;;;;;;1.23;0.63;;;7.00;81.50;;;;;;5115489;28;20061;-74
2021/01/21 07:00:14;;;;;;;3.00;0.90;;;7.00;81.30;;;;;;5116449;28;20040;-73
2021/01/21 07:02:45;;;;;;;3.70;1.10;;;6.90;81.10;;;;;;5096611;28;20046;-73
2021/01/21 07:05:15;;;;;;;0.90;0.60;;;6.90;80.90;;;;;;5115633;28;20074;-74
2021/01/21 07:08:00;;;;;;;1.38;0.63;;;6.90;80.80;;;;;;5114770;28;20067;-74
2021/01/21 07:10:30;;;;;;;3.70;0.98;;;6.80;80.60;;;;;;5113536;28;20119;-74
2021/01/21 07:12:58;;;;;;;1.30;0.80;;;6.80;80.30;;;;;;5113930;28;20066;-74
2021/01/21 07:15:41;;;;;;;2.03;1.02;;;6.80;80.30;;;;;;5116816;28;20177;-74
2021/01/21 07:18:14;;;;;;;2.42;0.80;;;6.80;80.30;;;;;;5118837;28;20046;-74
2021/01/21 07:21:08;;;;;;;3.85;1.20;;;6.70;80.30;;;;;;5098965;28;20050;-74
2021/01/21 07:23:48;;;;;;;2.80;0.65;;;6.70;80.30;;;;;;5116865;28;20036;-74
2021/01/21 07:26:28;;;;;;;2.70;0.98;;;6.70;80.30;;;;;;5081734;28;20059;-74
2021/01/21 07:29:09;;;;;;;2.05;0.70;;;6.70;80.20;;;;;;5115902;28;20376;-72
2021/01/21 07:32:04;;;;;;;5.45;1.15;;;6.50;80.10;;;;;;5115754;28;20043;-74
2021/01/21 07:34:39;;;;;;;5.18;1.15;;;6.50;80.20;;;;;;5114471;28;20035;-75
2021/01/21 07:37:18;;;;;;;1.45;0.68;;;6.40;80.20;;;;;;5097899;28;20494;-74
2021/01/21 07:40:07;;;;;;;2.97;0.77;;;6.30;80.30;;;;;;5114193;28;20044;-74
2021/01/21 07:42:53;;;;;;;1.38;0.50;;;6.30;80.50;;;;;;5083919;28;20402;-75
2021/01/21 07:45:24;;;;;;;0.95;0.47;;;6.30;80.50;;;;;;5115657;28;20044;-75
2021/01/21 07:47:50;;;;;;;2.55;0.75;;;6.30;80.50;;;;;;5115524;28;20122;-75
2021/01/21 07:50:30;;;;;;;2.15;0.57;;;6.20;80.50;;;;;;5115544;28;20044;-74
2021/01/21 07:52:57;;;;;;;2.63;0.50;;;6.20;80.50;;;;;;5115629;28;20046;-74
2021/01/21 07:55:38;;;;;;;1.92;0.70;;;6.20;80.40;;;;;;5115729;28;20035;-74
2021/01/21 07:58:20;;;;;;;1.30;0.60;;;6.30;80.30;;;;;;5096905;28;20069;-76
2021/01/21 08:00:47;;;;;;;1.88;0.60;;;6.20;80.10;;;;;;5116250;28;20113;-77
2021/01/21 08:03:14;;;;;;;2.10;0.65;;;6.30;80.00;;;;;;5115836;28;20046;-74
2021/01/21 08:05:40;;;;;;;1.02;0.65;;;6.30;79.90;;;;;;5115398;28;20032;-75
2021/01/21 08:08:06;;;;;;;2.40;0.70;;;6.30;79.90;;;;;;5118283;28;20032;-77
2021/01/21 08:10:34;;;;;;;1.40;0.45;;;6.30;80.00;;;;;;5121614;28;20118;-77
2021/01/21 08:13:14;;;;;;;1.05;0.40;;;6.20;80.00;;;;;;5119307;28;20043;-75
2021/01/21 08:15:41;;;;;;;4.25;0.70;;;6.20;80.10;;;;;;5082127;28;20043;-77
2021/01/21 08:18:06;;;;;;;2.60;0.68;;;6.20;80.00;;;;;;5117147;28;20047;-77
2021/01/21 08:20:36;;;;;;;2.05;0.50;;;6.30;80.10;;;;;;5117682;28;20517;-78
2021/01/21 08:23:04;;;;;;;1.23;0.43;;;6.30;80.00;;;;;;5098727;28;20521;-77
2021/01/21 08:25:40;;;;;;;2.58;0.65;;;6.30;80.10;;;;;;5096228;28;20122;-77
2021/01/21 08:28:08;;;;;;;1.88;0.70;;;6.30;80.10;;;;;;5117210;28;20044;-76
2021/01/21 08:30:41;;;;;;;1.20;0.47;;;6.40;80.00;;;;;;5116400;28;20028;-81
2021/01/21 08:33:15;;;;;;;2.85;0.70;;;6.30;79.80;;;;;;5126045;28;20126;-77
2021/01/21 08:35:46;;;;;;;1.23;0.50;;;6.30;79.80;;;;;;5120050;28;20043;-77
2021/01/21 08:38:16;;;;;;;1.88;0.70;;;6.40;79.80;;;;;;5129035;28;20111;-76
2021/01/21 08:40:43;;;;;;;2.08;0.60;;;6.40;79.90;;;;;;5115252;28;20436;-76
2021/01/21 08:43:09;;;;;;;1.83;0.63;;;6.40;79.80;;;;;;5115404;28;20119;-76
2021/01/21 08:45:36;;;;;;;2.20;0.77;;;6.40;79.80;;;;;;5100789;28;20185;-77
2021/01/21 08:48:03;;;;;;;2.75;0.70;;;6.40;79.80;;;;;;5098903;28;20060;-77
2021/01/21 08:50:38;;;;;;;2.53;0.63;;;6.40;79.80;;;;;;5101241;28;20044;-78
2021/01/21 08:53:08;;;;;;;4.47;1.17;;;6.40;79.80;;;;;;5126099;28;20028;-78
2021/01/21 08:55:36;;;;;;;2.13;0.70;;;6.40;79.90;;;;;;5096456;28;20040;-79
2021/01/21 08:58:14;;;;;;;1.77;0.73;;;6.50;79.90;;;;;;5081244;28;20130;-83
2021/01/21 09:01:23;;;;;;;2.90;0.70;;;6.50;80.00;;;;;;5099532;28;20039;-81
2021/01/21 09:03:52;;;;;;;5.78;0.75;;;6.50;79.90;;;;;;5052647;28;20048;-78
2021/01/21 09:06:46;;;;;;;2.25;0.70;;;6.60;80.00;;;;;;5011716;28;20094;-78
2021/01/21 09:09:24;;;;;;;1.88;0.70;;;6.50;79.90;;;;;;4951419;28;20495;-80
2021/01/21 09:11:49;;;;;;;2.40;0.50;;;6.70;80.00;;;;;;4973099;28;20047;-76
2021/01/21 09:14:16;;;;;;;1.77;0.52;;;6.70;80.00;;;;;;4957437;28;20082;-75
2021/01/21 09:16:50;;;;;;;4.07;0.70;;;6.70;80.00;;;;;;4972880;28;20081;-76
2021/01/21 09:19:35;;;;;;;3.03;0.60;;;6.70;80.10;;;;;;4973969;28;20049;-77
2021/01/21 09:22:05;;;;;;;1.90;0.77;;;6.70;80.10;;;;;;4976041;28;20047;-76
2021/01/21 09:24:32;;;;;;;4.07;0.73;;;6.80;80.30;;;;;;4958754;28;20053;-79
2021/01/21 09:27:15;;;;;;;4.80;1.40;;;6.80;80.20;;;;;;4977667;28;20047;-78
2021/01/21 09:29:57;;;;;;;3.15;0.90;;;6.90;80.30;;;;;;4975768;28;20046;-75
2021/01/21 09:32:27;;;;;;;4.03;0.85;;;6.90;80.30;;;;;;4973338;28;20042;-78
2021/01/21 09:35:00;;;;;;;4.10;0.95;;;7.00;80.30;;;;;;5001535;28;20069;-77
2021/01/21 09:37:28;;;;;;;1.83;0.75;;;6.90;80.30;;;;;;5016052;28;20049;-76
2021/01/21 09:39:53;;;;;;;2.88;0.98;;;6.90;80.30;;;;;;5068691;28;20126;-77
2021/01/21 09:42:20;;;;;;;4.30;1.13;;;7.00;80.30;;;;;;5096705;28;20082;-77
2021/01/21 09:44:46;;;;;;;4.65;0.90;;;7.00;80.40;;;;;;5098291;28;20044;-76
2021/01/21 09:47:12;;;;;;;4.65;0.95;;;7.00;80.40;;;;;;5115024;28;20040;-75
2021/01/21 09:49:57;;;;;;;3.58;0.60;;;7.10;80.50;;;;;;5114116;28;20091;-76
2021/01/21 09:52:23;;;;;;;3.28;0.70;;;7.20;80.50;;;;;;5101461;28;20036;-75
2021/01/21 09:54:49;;;;;;;5.38;0.80;;;7.20;80.50;;;;;;5117833;28;20100;-75
2021/01/21 09:57:14;;;;;;;2.65;0.80;;;7.20;80.40;;;;;;5114997;28;20050;-76
2021/01/21 09:59:40;;;;;;;4.60;1.23;;;7.20;80.40;;;;;;5096629;28;20399;-77
2021/01/21 10:02:07;;;;;;;6.28;0.93;;;7.30;80.50;;;;;;5116264;28;20491;-76
2021/01/21 10:04:36;;;;;;;3.88;0.80;;;7.40;80.40;;;;;;5094757;28;20044;-76
2021/01/21 10:07:03;;;;;;;3.50;0.90;;;7.50;80.20;;;;;;5115492;28;20093;-76
2021/01/21 10:09:29;;;;;;;2.92;0.70;;;7.60;80.10;;;;;;5114267;28;20119;-77
2021/01/21 10:12:15;;;;;;;5.78;1.05;;;7.70;80.00;;;;;;5114951;28;20059;-76
2021/01/21 10:14:40;;;;;;;2.22;0.77;;;7.70;80.00;;;;;;5114138;28;20051;-76
2021/01/21 10:17:08;;;;;;;3.67;1.05;;;7.70;79.80;;;;;;5114804;28;20055;-77
2021/01/21 10:19:34;;;;;;;4.13;1.10;;;7.70;79.90;;;;;;5116424;28;20046;-78
2021/01/21 10:22:00;;;;;;;3.92;0.73;;;7.80;79.80;;;;;;5119139;28;20069;-78
2021/01/21 10:24:26;;;;;;;4.28;1.30;;;7.80;79.80;;;;;;5098963;28;20043;-74
2021/01/21 10:26:52;;;;;;;3.28;0.98;;;7.90;79.80;;;;;;5114072;28;20060;-77
2021/01/21 10:29:18;;;;;;;2.42;0.73;;;7.90;79.70;;;;;;5094868;28;20046;-77
2021/01/21 10:31:47;;;;;;;6.38;1.17;;;8.00;79.50;;;;;;5095672;28;20063;-80
2021/01/21 10:34:12;;;;;;;3.90;0.88;;;8.10;79.30;;;;;;5070813;28;20057;-76
2021/01/21 10:36:38;;;;;;;3.33;1.25;;;8.20;79.30;;;;;;5050706;28;20057;-77
2021/01/21 10:39:05;;;;;;;2.83;0.80;;;8.10;79.20;;;;;;5033638;28;20408;-77
2021/01/21 10:41:32;;;;;;;3.25;0.82;;;8.10;79.20;;;;;;5050921;28;20472;-76
2021/01/21 10:43:57;;;;;;;4.47;0.82;;;8.10;79.20;;;;;;5050771;28;20114;-77
2021/01/21 10:46:23;;;;;;;2.80;0.63;;;8.20;79.40;;;;;;5050768;28;20045;-77
2021/01/21 10:48:49;;;;;;;5.38;1.40;;;8.10;79.40;;;;;;5049923;28;20087;-76
2021/01/21 10:51:15;;;;;;;3.03;1.42;;;8.00;79.40;;;;;;5048921;28;20045;-76
2021/01/21 10:53:41;;;;;;;5.30;1.15;;;8.00;79.50;;;;;;5050157;28;20076;-75
2021/01/21 10:56:07;;;;;;;3.28;1.10;;;8.10;79.50;;;;;;5033449;28;20052;-77
2021/01/21 10:58:33;;;;;;;5.38;0.90;;;8.10;79.90;;;;;;5051121;28;20049;-77
2021/01/21 11:00:59;;;;;;;1.95;0.70;;;8.00;79.50;;;;;;5049748;28;20048;-72
2021/01/21 11:03:24;;;;;;;2.00;0.98;;;8.00;79.50;;;;;;5049769;28;20496;-74
2021/01/21 11:05:50;;;;;;;4.28;0.90;;;8.10;79.50;;;;;;5099558;28;20047;-76
2021/01/21 11:08:16;;;;;;;2.38;0.80;;;8.10;79.40;;;;;;5112899;28;20035;-75
2021/01/21 11:10:45;;;;;;;2.08;0.77;;;8.10;79.50;;;;;;5113549;28;20051;-76
2021/01/21 11:13:17;;;;;;;2.03;0.80;;;8.20;79.40;;;;;;5112719;28;20035;-74
2021/01/21 11:15:43;;;;;;;2.30;0.73;;;8.20;79.40;;;;;;5095542;28;20051;-76
2021/01/21 11:18:09;;;;;;;2.45;0.70;;;8.20;79.30;;;;;;5112916;28;20474;-77
2021/01/21 11:20:35;;;;;;;4.22;0.90;;;8.20;79.40;;;;;;5094478;28;20047;-78
2021/01/21 11:23:01;;;;;;;2.30;0.80;;;8.10;79.40;;;;;;5113986;28;20534;-76
2021/01/21 11:25:27;;;;;;;3.70;0.93;;;8.20;79.50;;;;;;5112675;28;20387;-77
2021/01/21 11:27:53;;;;;;;3.80;1.25;;;8.10;79.40;;;;;;5112800;28;20035;-76
2021/01/21 11:30:19;;;;;;;2.33;0.80;;;8.10;79.40;;;;;;5075272;28;20043;-75
2021/01/21 11:32:45;;;;;;;1.67;0.60;;;8.10;79.50;;;;;;5113043;28;20421;-76
2021/01/21 11:35:11;;;;;;;2.47;0.70;;;8.10;79.50;;;;;;5093668;28;20150;-76
2021/01/21 11:37:37;;;;;;;3.42;0.90;;;8.20;79.50;;;;;;5094419;28;20028;-76
2021/01/21 11:40:04;;;;;;;3.20;0.80;;;8.20;79.50;;;;;;5112259;28;20036;-76
2021/01/21 11:42:29;;;;;;;3.15;1.10;;;8.20;79.30;;;;;;5112349;28;20047;-76
2021/01/21 11:44:55;;;;;;;3.58;1.05;;;8.20;79.20;;;;;;5093040;28;20063;-76
2021/01/21 11:47:21;;;;;;;2.60;0.70;;;8.30;79.20;;;;;;5112257;28;20071;-77
2021/01/21 11:49:47;;;;;;;2.92;0.98;;;8.30;79.10;;;;;;5094745;28;20062;-77
2021/01/21 11:52:13;;;;;;;3.80;1.15;;;8.30;79.70;;;;;;5112646;28;20115;-77
2021/01/21 11:54:39;;;;;;;2.55;0.55;;;8.30;79.10;;;;;;5112009;28;20404;-76
2021/01/21 11:57:05;;;;;;;2.47;0.85;;;8.20;79.10;;;;;;5093739;28;20047;-75
2021/01/21 11:59:30;;;;;;;2.33;0.75;;;8.20;79.10;;;;;;5113297;28;20092;-76
2021/01/21 12:01:56;;;;;;;1.98;0.80;;;8.20;79.20;;;;;;5115442;28;20132;-76
2021/01/21 12:04:22;;;;;;;2.72;0.98;;;8.20;79.20;;;;;;5115651;28;20067;-77
2021/01/21 12:06:48;;;;;;;2.67;0.60;;;8.30;79.10;;;;;;5115607;28;20035;-76
2021/01/21 12:09:14;;;;;;;2.83;0.77;;;8.30;79.10;;;;;;5115214;28;20123;-75
2021/01/21 12:11:40;;;;;;;1.55;0.60;;;8.40;79.20;;;;;;5115487;28;20124;-77
2021/01/21 12:14:06;;;;;;;3.63;0.93;;;8.50;78.90;;;;;;5115547;28;20046;-77
2021/01/21 12:16:31;;;;;;;1.30;0.70;;;8.50;78.70;;;;;;5115690;28;20123;-76
2021/01/21 12:18:57;;;;;;;2.72;0.80;;;8.50;78.70;;;;;;5115816;28;20039;-76
2021/01/21 12:21:23;;;;;;;1.75;0.77;;;8.50;78.60;;;;;;5116281;28;20035;-77
2021/01/21 12:23:50;;;;;;;3.15;0.77;;;8.60;78.60;;;;;;5115457;28;20055;-74
2021/01/21 12:26:16;;;;;;;1.88;0.63;;;8.60;78.60;;;;;;5115722;28;20046;-76
2021/01/21 12:28:42;;;;;;;2.92;0.90;;;8.60;78.60;;;;;;5115839;28;20039;-77
2021/01/21 12:31:13;;;;;;;3.40;1.05;;;8.60;78.50;;;;;;5115757;28;20476;-75
2021/01/21 12:33:38;;;;;;;3.83;1.00;;;8.60;78.50;;;;;;5115264;28;20032;-78
2021/01/21 12:36:05;;;;;;;3.40;1.05;;;8.60;78.40;;;;;;5096157;28;20476;-77
2021/01/21 12:38:31;;;;;;;3.05;0.95;;;8.70;78.30;;;;;;5097015;28;20035;-76
2021/01/21 12:40:56;;;;;;;3.97;0.80;;;8.70;78.20;;;;;;5115235;28;20039;-76
2021/01/21 12:43:23;;;;;;;1.95;0.90;;;8.60;78.10;;;;;;5115119;28;20035;-77
2021/01/21 12:45:50;;;;;;;1.50;0.60;;;8.60;78.40;;;;;;5114691;28;20068;-74
2021/01/21 12:48:17;;;;;;;4.90;1.13;;;8.60;78.50;;;;;;5115574;28;20047;-78
2021/01/21 12:50:42;;;;;;;2.42;0.93;;;8.50;78.50;;;;;;5115419;28;20046;-76
2021/01/21 12:53:08;;;;;;;5.25;1.00;;;8.50;78.50;;;;;;5115271;28;20028;-79
2021/01/21 12:55:34;;;;;;;1.58;0.77;;;8.40;78.60;;;;;;5115207;28;20067;-76
2021/01/21 12:58:00;;;;;;;2.80;0.80;;;8.50;78.70;;;;;;5096651;28;20502;-78
2021/01/21 13:00:26;;;;;;;2.58;0.90;;;8.40;78.60;;;;;;5114791;28;20509;-79
2021/01/21 13:03:07;;;;;;;1.88;0.98;;;8.40;78.50;;;;;;5115771;28;20135;-82